sensor_id;sensor_type;location;lat;lon;timestamp;pressure;altitude;pressure_sealevel;temperature;humidity
71105;BME280;58760;48.716;8.962;2023-02-11T00:00:19;98439.00;;;-3.00;85.89
71105;BME280;58760;48.716;8.962;2023-02-11T00:02:45;98446.72;;;-2.98;86.20
71105;BME280;58760;48.716;8.962;2023-02-11T00:05:10;98438.13;;;-3.00;86.71
71105;BME280;58760;48.716;8.962;2023-02-11T00:07:35;98436.34;;;-2.98;87.44
71105;BME280;58760;48.716;8.962;2023-02-11T00:10:03;98434.78;;;-3.04;87.25
71105;BME280;58760;48.716;8.962;2023-02-11T00:12:28;98432.88;;;-2.99;87.75
71105;BME280;58760;48.716;8.962;2023-02-11T00:14:54;98443.44;;;-3.05;87.76
71105;BME280;58760;48.716;8.962;2023-02-11T00:17:19;98431.31;;;-3.04;88.48
71105;BME280;58760;48.716;8.962;2023-02-11T00:19:48;98436.00;;;-2.86;88.91
71105;BME280;58760;48.716;8.962;2023-02-11T00:22:14;98441.03;;;-2.80;88.70
71105;BME280;58760;48.716;8.962;2023-02-11T00:24:39;98437.78;;;-2.88;88.44
71105;BME280;58760;48.716;8.962;2023-02-11T00:27:04;98436.03;;;-2.88;88.67
71105;BME280;58760;48.716;8.962;2023-02-11T00:29:30;98442.22;;;-2.92;88.28
71105;BME280;58760;48.716;8.962;2023-02-11T00:31:55;98440.59;;;-2.96;88.41
71105;BME280;58760;48.716;8.962;2023-02-11T00:34:21;98432.97;;;-3.02;88.23
71105;BME280;58760;48.716;8.962;2023-02-11T00:36:46;98428.38;;;-2.92;88.42
71105;BME280;58760;48.716;8.962;2023-02-11T00:39:13;98423.03;;;-2.86;88.34
71105;BME280;58760;48.716;8.962;2023-02-11T00:41:39;98422.88;;;-2.82;88.13
71105;BME280;58760;48.716;8.962;2023-02-11T00:44:04;98422.94;;;-2.83;87.95
71105;BME280;58760;48.716;8.962;2023-02-11T00:46:30;98425.78;;;-2.92;87.65
71105;BME280;58760;48.716;8.962;2023-02-11T00:48:55;98413.16;;;-3.04;87.24
71105;BME280;58760;48.716;8.962;2023-02-11T00:51:25;98407.97;;;-3.04;87.56
71105;BME280;58760;48.716;8.962;2023-02-11T00:53:52;98420.22;;;-3.09;87.65
71105;BME280;58760;48.716;8.962;2023-02-11T00:56:18;98420.34;;;-3.14;87.54
71105;BME280;58760;48.716;8.962;2023-02-11T00:58:43;98423.88;;;-3.17;87.47
71105;BME280;58760;48.716;8.962;2023-02-11T01:01:09;98422.34;;;-3.24;87.05
71105;BME280;58760;48.716;8.962;2023-02-11T01:03:35;98427.53;;;-3.24;87.27
71105;BME280;58760;48.716;8.962;2023-02-11T01:06:00;98428.50;;;-3.28;87.07
71105;BME280;58760;48.716;8.962;2023-02-11T01:08:26;98423.22;;;-3.25;87.28
71105;BME280;58760;48.716;8.962;2023-02-11T01:11:16;98423.16;;;-3.22;87.48
71105;BME280;58760;48.716;8.962;2023-02-11T01:13:41;98417.88;;;-3.19;87.50
71105;BME280;58760;48.716;8.962;2023-02-11T01:16:08;98417.13;;;-3.22;87.12
71105;BME280;58760;48.716;8.962;2023-02-11T01:18:34;98411.09;;;-3.24;87.12
71105;BME280;58760;48.716;8.962;2023-02-11T01:20:59;98403.38;;;-3.26;87.32
71105;BME280;58760;48.716;8.962;2023-02-11T01:23:25;98399.75;;;-3.20;87.54
71105;BME280;58760;48.716;8.962;2023-02-11T01:25:50;98403.28;;;-3.23;87.36
71105;BME280;58760;48.716;8.962;2023-02-11T01:28:23;98390.25;;;-3.21;87.33
71105;BME280;58760;48.716;8.962;2023-02-11T01:30:50;98384.94;;;-3.17;87.61
71105;BME280;58760;48.716;8.962;2023-02-11T01:33:15;98374.56;;;-3.17;87.57
71105;BME280;58760;48.716;8.962;2023-02-11T01:35:42;98379.84;;;-3.20;87.48
71105;BME280;58760;48.716;8.962;2023-02-11T01:38:14;98374.69;;;-3.21;87.56
71105;BME280;58760;48.716;8.962;2023-02-11T01:40:39;98380.03;;;-3.26;87.57
71105;BME280;58760;48.716;8.962;2023-02-11T01:43:05;98375.72;;;-3.27;87.88
71105;BME280;58760;48.716;8.962;2023-02-11T01:48:21;98380.91;;;-3.27;88.09
71105;BME280;58760;48.716;8.962;2023-02-11T01:50:55;98374.06;;;-3.29;88.04
71105;BME280;58760;48.716;8.962;2023-02-11T01:53:22;98365.28;;;-3.25;88.08
71105;BME280;58760;48.716;8.962;2023-02-11T01:56:07;98379.03;;;-3.22;88.06
71105;BME280;58760;48.716;8.962;2023-02-11T01:58:54;98374.84;;;-3.26;87.86
71105;BME280;58760;48.716;8.962;2023-02-11T02:01:25;98375.16;;;-3.38;87.46
71105;BME280;58760;48.716;8.962;2023-02-11T02:03:55;98361.28;;;-3.37;87.79
71105;BME280;58760;48.716;8.962;2023-02-11T02:06:26;98364.78;;;-3.38;87.79
71105;BME280;58760;48.716;8.962;2023-02-11T02:08:58;98367.34;;;-3.36;87.77
71105;BME280;58760;48.716;8.962;2023-02-11T02:11:26;98358.69;;;-3.37;88.13
71105;BME280;58760;48.716;8.962;2023-02-11T02:13:51;98364.84;;;-3.41;88.01
71105;BME280;58760;48.716;8.962;2023-02-11T02:16:18;98362.41;;;-3.45;88.35
71105;BME280;58760;48.716;8.962;2023-02-11T02:35:43;98343.34;;;-3.15;87.29
71105;BME280;58760;48.716;8.962;2023-02-11T02:38:18;98339.09;;;-3.18;87.68
71105;BME280;58760;48.716;8.962;2023-02-11T02:40:47;98335.63;;;-3.17;87.74
71105;BME280;58760;48.716;8.962;2023-02-11T02:43:15;98332.28;;;-3.20;87.54
71105;BME280;58760;48.716;8.962;2023-02-11T02:45:41;98326.53;;;-3.31;87.24
71105;BME280;58760;48.716;8.962;2023-02-11T02:48:20;98327.16;;;-3.23;87.52
71105;BME280;58760;48.716;8.962;2023-02-11T02:50:47;98334.13;;;-3.25;87.32
71105;BME280;58760;48.716;8.962;2023-02-11T02:53:25;98328.88;;;-3.22;87.58
71105;BME280;58760;48.716;8.962;2023-02-11T02:55:59;98327.16;;;-3.23;87.39
71105;BME280;58760;48.716;8.962;2023-02-11T02:58:54;98323.94;;;-3.31;87.29
71105;BME280;58760;48.716;8.962;2023-02-11T03:06:54;98319.31;;;-3.22;87.55
71105;BME280;58760;48.716;8.962;2023-02-11T03:09:27;98334.13;;;-3.25;87.22
71105;BME280;58760;48.716;8.962;2023-02-11T03:11:55;98331.69;;;-3.30;87.18
71105;BME280;58760;48.716;8.962;2023-02-11T03:14:21;98328.41;;;-3.36;87.02
71105;BME280;58760;48.716;8.962;2023-02-11T03:16:50;98319.78;;;-3.37;87.37
71105;BME280;58760;48.716;8.962;2023-02-11T03:19:23;98317.38;;;-3.13;86.69
71105;BME280;58760;48.716;8.962;2023-02-11T03:21:52;98316.72;;;-3.22;86.67
71105;BME280;58760;48.716;8.962;2023-02-11T03:24:23;98315.66;;;-3.14;87.10
71105;BME280;58760;48.716;8.962;2023-02-11T03:26:52;98314.38;;;-3.29;86.75
71105;BME280;58760;48.716;8.962;2023-02-11T03:31:58;98327.53;;;-3.35;87.31
71105;BME280;58760;48.716;8.962;2023-02-11T03:39:45;98302.56;;;-3.10;86.98
71105;BME280;58760;48.716;8.962;2023-02-11T03:42:13;98285.16;;;-3.08;86.68
71105;BME280;58760;48.716;8.962;2023-02-11T03:44:44;98295.06;;;-3.21;86.74
71105;BME280;58760;48.716;8.962;2023-02-11T03:47:14;98303.13;;;-3.30;86.54
71105;BME280;58760;48.716;8.962;2023-02-11T03:49:42;98312.84;;;-3.36;87.24
71105;BME280;58760;48.716;8.962;2023-02-11T03:52:10;98325.06;;;-3.40;87.48
71105;BME280;58760;48.716;8.962;2023-02-11T03:54:38;98308.34;;;-3.31;87.61
71105;BME280;58760;48.716;8.962;2023-02-11T03:57:07;98312.53;;;-3.26;87.03
71105;BME280;58760;48.716;8.962;2023-02-11T03:59:48;98301.53;;;-3.34;87.07
71105;BME280;58760;48.716;8.962;2023-02-11T04:02:14;98316.28;;;-3.36;87.20
71105;BME280;58760;48.716;8.962;2023-02-11T04:04:39;98306.00;;;-3.39;87.38
71105;BME280;58760;48.716;8.962;2023-02-11T04:07:04;98304.22;;;-3.37;87.21
71105;BME280;58760;48.716;8.962;2023-02-11T04:09:30;98300.00;;;-3.41;87.42
71105;BME280;58760;48.716;8.962;2023-02-11T04:11:55;98303.53;;;-3.43;87.59
71105;BME280;58760;48.716;8.962;2023-02-11T04:14:21;98305.81;;;-3.33;87.45
71105;BME280;58760;48.716;8.962;2023-02-11T04:16:46;98309.09;;;-3.26;87.67
71105;BME280;58760;48.716;8.962;2023-02-11T04:19:11;98314.91;;;-3.18;87.58
71105;BME280;58760;48.716;8.962;2023-02-11T04:21:37;98317.97;;;-3.05;87.05
71105;BME280;58760;48.716;8.962;2023-02-11T04:24:02;98324.66;;;-2.97;87.00
71105;BME280;58760;48.716;8.962;2023-02-11T04:26:28;98324.28;;;-2.85;86.90
71105;BME280;58760;48.716;8.962;2023-02-11T04:28:53;98322.53;;;-2.84;86.72
71105;BME280;58760;48.716;8.962;2023-02-11T04:31:18;98321.56;;;-2.80;86.69
71105;BME280;58760;48.716;8.962;2023-02-11T04:33:44;98326.34;;;-2.68;86.93
71105;BME280;58760;48.716;8.962;2023-02-11T04:36:09;98320.22;;;-2.66;86.69
71105;BME280;58760;48.716;8.962;2023-02-11T04:38:34;98319.75;;;-2.50;85.58
71105;BME280;58760;48.716;8.962;2023-02-11T04:41:00;98316.38;;;-2.54;85.68
71105;BME280;58760;48.716;8.962;2023-02-11T04:43:25;98319.66;;;-2.47;85.93
71105;BME280;58760;48.716;8.962;2023-02-11T04:45:50;98327.72;;;-2.30;85.04
71105;BME280;58760;48.716;8.962;2023-02-11T04:48:16;98332.16;;;-2.34;85.12
71105;BME280;58760;48.716;8.962;2023-02-11T04:50:41;98318.50;;;-2.14;84.13
71105;BME280;58760;48.716;8.962;2023-02-11T04:53:06;98309.31;;;-2.24;84.08
71105;BME280;58760;48.716;8.962;2023-02-11T04:55:32;98313.59;;;-2.22;84.65
71105;BME280;58760;48.716;8.962;2023-02-11T04:57:57;98315.97;;;-2.16;84.63
71105;BME280;58760;48.716;8.962;2023-02-11T05:00:23;98319.97;;;-2.05;84.79
71105;BME280;58760;48.716;8.962;2023-02-11T05:02:48;98318.13;;;-2.02;84.89
71105;BME280;58760;48.716;8.962;2023-02-11T05:05:13;98316.41;;;-2.03;84.98
71105;BME280;58760;48.716;8.962;2023-02-11T05:07:39;98317.91;;;-1.96;84.56
71105;BME280;58760;48.716;8.962;2023-02-11T05:10:04;98314.56;;;-1.99;84.59
71105;BME280;58760;48.716;8.962;2023-02-11T05:12:30;98310.41;;;-1.80;84.13
71105;BME280;58760;48.716;8.962;2023-02-11T05:14:55;98293.50;;;-1.69;83.82
71105;BME280;58760;48.716;8.962;2023-02-11T05:17:21;98296.19;;;-1.70;83.39
71105;BME280;58760;48.716;8.962;2023-02-11T05:19:46;98295.19;;;-1.66;83.60
71105;BME280;58760;48.716;8.962;2023-02-11T05:22:11;98287.56;;;-1.72;83.85
71105;BME280;58760;48.716;8.962;2023-02-11T05:24:37;98292.94;;;-1.77;84.91
71105;BME280;58760;48.716;8.962;2023-02-11T05:27:02;98276.00;;;-1.64;84.57
71105;BME280;58760;48.716;8.962;2023-02-11T05:29:27;98261.69;;;-1.52;83.36
71105;BME280;58760;48.716;8.962;2023-02-11T05:31:53;98246.19;;;-1.55;82.96
71105;BME280;58760;48.716;8.962;2023-02-11T05:34:18;98246.19;;;-1.55;82.53
71105;BME280;58760;48.716;8.962;2023-02-11T05:36:43;98250.41;;;-1.52;81.46
71105;BME280;58760;48.716;8.962;2023-02-11T05:39:09;98249.69;;;-1.79;82.14
71105;BME280;58760;48.716;8.962;2023-02-11T05:41:34;98248.47;;;-1.69;82.13
71105;BME280;58760;48.716;8.962;2023-02-11T05:44:00;98236.78;;;-1.82;82.42
71105;BME280;58760;48.716;8.962;2023-02-11T05:46:25;98237.50;;;-2.02;82.99
71105;BME280;58760;48.716;8.962;2023-02-11T05:48:50;98232.31;;;-2.02;83.10
71105;BME280;58760;48.716;8.962;2023-02-11T05:51:16;98236.28;;;-1.92;83.98
71105;BME280;58760;48.716;8.962;2023-02-11T05:53:41;98247.72;;;-1.97;83.89
71105;BME280;58760;48.716;8.962;2023-02-11T05:56:07;98249.44;;;-1.96;83.68
71105;BME280;58760;48.716;8.962;2023-02-11T05:58:32;98241.09;;;-2.06;83.37
71105;BME280;58760;48.716;8.962;2023-02-11T06:00:58;98241.25;;;-1.86;83.88
71105;BME280;58760;48.716;8.962;2023-02-11T06:03:23;98235.50;;;-1.71;83.96
71105;BME280;58760;48.716;8.962;2023-02-11T06:05:48;98246.56;;;-1.66;83.37
71105;BME280;58760;48.716;8.962;2023-02-11T06:08:14;98257.31;;;-1.75;82.87
71105;BME280;58760;48.716;8.962;2023-02-11T06:10:39;98253.13;;;-1.79;82.35
71105;BME280;58760;48.716;8.962;2023-02-11T06:13:07;98248.50;;;-1.71;83.23
71105;BME280;58760;48.716;8.962;2023-02-11T06:15:32;98235.25;;;-1.65;83.41
71105;BME280;58760;48.716;8.962;2023-02-11T06:17:57;98251.63;;;-1.38;83.77
71105;BME280;58760;48.716;8.962;2023-02-11T06:20:23;98267.66;;;-1.27;83.46
71105;BME280;58760;48.716;8.962;2023-02-11T06:22:48;98270.19;;;-1.24;82.33
71105;BME280;58760;48.716;8.962;2023-02-11T06:25:13;98278.63;;;-1.40;81.25
71105;BME280;58760;48.716;8.962;2023-02-11T06:27:39;98279.78;;;-1.26;83.09
71105;BME280;58760;48.716;8.962;2023-02-11T06:30:05;98281.22;;;-1.40;81.29
71105;BME280;58760;48.716;8.962;2023-02-11T06:32:32;98279.91;;;-1.52;81.35
71105;BME280;58760;48.716;8.962;2023-02-11T06:34:57;98290.03;;;-1.44;82.44
71105;BME280;58760;48.716;8.962;2023-02-11T06:37:22;98274.34;;;-1.43;81.14
71105;BME280;58760;48.716;8.962;2023-02-11T06:39:48;98269.38;;;-1.26;81.81
71105;BME280;58760;48.716;8.962;2023-02-11T06:42:13;98267.16;;;-1.13;82.05
71105;BME280;58760;48.716;8.962;2023-02-11T06:44:39;98267.88;;;-1.10;82.49
71105;BME280;58760;48.716;8.962;2023-02-11T06:47:04;98264.63;;;-1.15;82.09
71105;BME280;58760;48.716;8.962;2023-02-11T06:49:29;98258.38;;;-1.11;82.70
71105;BME280;58760;48.716;8.962;2023-02-11T06:51:55;98266.09;;;-1.08;83.38
71105;BME280;58760;48.716;8.962;2023-02-11T06:54:20;98267.78;;;-0.85;83.95
71105;BME280;58760;48.716;8.962;2023-02-11T06:56:46;98274.06;;;-0.90;83.83
71105;BME280;58760;48.716;8.962;2023-02-11T06:59:16;98275.13;;;-0.94;83.91
71105;BME280;58760;48.716;8.962;2023-02-11T07:01:42;98282.00;;;-0.93;84.21
71105;BME280;58760;48.716;8.962;2023-02-11T07:04:07;98289.78;;;-0.92;84.29
71105;BME280;58760;48.716;8.962;2023-02-11T07:06:33;98279.47;;;-0.73;83.17
71105;BME280;58760;48.716;8.962;2023-02-11T07:08:58;98283.34;;;-0.83;83.34
71105;BME280;58760;48.716;8.962;2023-02-11T07:11:25;98284.03;;;-0.78;83.59
71105;BME280;58760;48.716;8.962;2023-02-11T07:13:53;98295.28;;;-0.78;83.84
71105;BME280;58760;48.716;8.962;2023-02-11T07:16:19;98282.53;;;-0.62;83.21
71105;BME280;58760;48.716;8.962;2023-02-11T07:18:46;98285.84;;;-0.59;83.23
71105;BME280;58760;48.716;8.962;2023-02-11T07:21:13;98281.91;;;-0.47;82.91
71105;BME280;58760;48.716;8.962;2023-02-11T07:23:40;98281.75;;;-0.44;82.87
71105;BME280;58760;48.716;8.962;2023-02-11T07:26:12;98280.75;;;-0.40;82.08
71105;BME280;58760;48.716;8.962;2023-02-11T07:28:39;98280.06;;;-0.45;81.96
71105;BME280;58760;48.716;8.962;2023-02-11T07:31:16;98282.41;;;-0.39;81.58
71105;BME280;58760;48.716;8.962;2023-02-11T07:33:42;98273.44;;;-0.32;81.85
71105;BME280;58760;48.716;8.962;2023-02-11T07:36:10;98281.75;;;-0.44;81.74
71105;BME280;58760;48.716;8.962;2023-02-11T07:38:37;98282.38;;;-0.37;82.06
71105;BME280;58760;48.716;8.962;2023-02-11T07:41:05;98290.97;;;-0.35;82.02
71105;BME280;58760;48.716;8.962;2023-02-11T07:43:31;98295.09;;;-0.30;81.64
71105;BME280;58760;48.716;8.962;2023-02-11T07:45:57;98311.66;;;-0.31;82.16
71105;BME280;58760;48.716;8.962;2023-02-11T07:48:22;98304.88;;;-0.15;80.47
71105;BME280;58760;48.716;8.962;2023-02-11T07:50:48;98305.44;;;-0.07;81.31
71105;BME280;58760;48.716;8.962;2023-02-11T07:53:13;98303.84;;;0.30;79.67
71105;BME280;58760;48.716;8.962;2023-02-11T07:55:38;98302.19;;;0.09;80.11
71105;BME280;58760;48.716;8.962;2023-02-11T07:58:04;98288.09;;;0.13;80.26
71105;BME280;58760;48.716;8.962;2023-02-11T08:00:29;98297.00;;;0.27;79.16
71105;BME280;58760;48.716;8.962;2023-02-11T08:02:56;98291.47;;;0.35;79.24
71105;BME280;58760;48.716;8.962;2023-02-11T08:05:21;98289.66;;;0.56;79.61
71105;BME280;58760;48.716;8.962;2023-02-11T08:07:50;98287.59;;;0.23;79.43
71105;BME280;58760;48.716;8.962;2023-02-11T08:10:16;98287.00;;;0.37;79.31
71105;BME280;58760;48.716;8.962;2023-02-11T08:12:41;98275.34;;;0.25;79.27
71105;BME280;58760;48.716;8.962;2023-02-11T08:15:07;98275.72;;;0.36;79.32
71105;BME280;58760;48.716;8.962;2023-02-11T08:17:34;98276.56;;;0.37;79.80
71105;BME280;58760;48.716;8.962;2023-02-11T08:20:00;98284.22;;;0.41;79.04
71105;BME280;58760;48.716;8.962;2023-02-11T08:22:25;98284.47;;;0.35;79.97
71105;BME280;58760;48.716;8.962;2023-02-11T08:24:50;98280.84;;;0.58;79.42
71105;BME280;58760;48.716;8.962;2023-02-11T08:27:16;98277.31;;;0.59;79.07
71105;BME280;58760;48.716;8.962;2023-02-11T08:29:41;98274.78;;;0.76;78.35
71105;BME280;58760;48.716;8.962;2023-02-11T08:32:07;98273.75;;;0.80;78.90
71105;BME280;58760;48.716;8.962;2023-02-11T08:34:32;98274.34;;;0.85;78.99
71105;BME280;58760;48.716;8.962;2023-02-11T08:36:58;98272.88;;;0.98;79.05
71105;BME280;58760;48.716;8.962;2023-02-11T08:39:23;98273.88;;;0.96;79.35
71105;BME280;58760;48.716;8.962;2023-02-11T08:41:53;98271.81;;;1.02;78.13
71105;BME280;58760;48.716;8.962;2023-02-11T08:44:21;98274.22;;;1.26;77.23
71105;BME280;58760;48.716;8.962;2023-02-11T08:46:47;98276.59;;;1.30;76.91
71105;BME280;58760;48.716;8.962;2023-02-11T08:49:14;98272.22;;;1.31;77.39
71105;BME280;58760;48.716;8.962;2023-02-11T08:51:39;98278.75;;;1.58;75.98
71105;BME280;58760;48.716;8.962;2023-02-11T08:54:05;98275.03;;;1.45;76.91
71105;BME280;58760;48.716;8.962;2023-02-11T08:56:34;98270.84;;;1.41;77.73
71105;BME280;58760;48.716;8.962;2023-02-11T08:58:59;98265.91;;;1.35;78.15
71105;BME280;58760;48.716;8.962;2023-02-11T09:01:27;98272.09;;;1.51;77.61
71105;BME280;58760;48.716;8.962;2023-02-11T09:03:53;98273.16;;;1.47;77.93
71105;BME280;58760;48.716;8.962;2023-02-11T09:06:19;98263.75;;;1.62;78.85
71105;BME280;58760;48.716;8.962;2023-02-11T09:08:47;98259.19;;;1.82;78.34
71105;BME280;58760;48.716;8.962;2023-02-11T09:11:18;98263.16;;;1.91;78.63
71105;BME280;58760;48.716;8.962;2023-02-11T09:13:44;98263.16;;;2.08;77.83
71105;BME280;58760;48.716;8.962;2023-02-11T09:16:18;98264.72;;;2.28;77.45
71105;BME280;58760;48.716;8.962;2023-02-11T09:18:45;98263.00;;;3.55;73.97
71105;BME280;58760;48.716;8.962;2023-02-11T09:21:12;98259.38;;;3.57;71.11
71105;BME280;58760;48.716;8.962;2023-02-11T09:23:38;98261.44;;;3.21;72.08
71105;BME280;58760;48.716;8.962;2023-02-11T09:26:10;98265.81;;;2.89;72.64
71105;BME280;58760;48.716;8.962;2023-02-11T09:28:36;98266.00;;;3.02;72.27
71105;BME280;58760;48.716;8.962;2023-02-11T09:31:10;98262.94;;;2.94;74.04
71105;BME280;58760;48.716;8.962;2023-02-11T09:33:36;98263.72;;;2.96;74.06
71105;BME280;58760;48.716;8.962;2023-02-11T09:36:03;98252.78;;;2.88;73.33
71105;BME280;58760;48.716;8.962;2023-02-11T09:38:30;98255.50;;;3.02;73.02
71105;BME280;58760;48.716;8.962;2023-02-11T09:40:55;98253.81;;;3.01;73.28
71105;BME280;58760;48.716;8.962;2023-02-11T09:43:43;98248.03;;;3.10;73.28
71105;BME280;58760;48.716;8.962;2023-02-11T09:46:13;98234.09;;;3.09;72.59
71105;BME280;58760;48.716;8.962;2023-02-11T09:48:41;98242.91;;;3.08;72.61
71105;BME280;58760;48.716;8.962;2023-02-11T09:51:35;98244.56;;;3.09;72.46
71105;BME280;58760;48.716;8.962;2023-02-11T09:54:11;98256.00;;;3.24;72.71
71105;BME280;58760;48.716;8.962;2023-02-11T09:56:37;98250.91;;;3.37;72.13
71105;BME280;58760;48.716;8.962;2023-02-11T09:59:03;98258.16;;;3.63;71.94
71105;BME280;58760;48.716;8.962;2023-02-11T10:01:43;98258.72;;;3.68;71.06
71105;BME280;58760;48.716;8.962;2023-02-11T10:10:16;98260.63;;;3.96;70.60
71105;BME280;58760;48.716;8.962;2023-02-11T10:23:46;98259.75;;;4.39;69.36
71105;BME280;58760;48.716;8.962;2023-02-11T10:26:17;98261.56;;;4.53;69.79
71105;BME280;58760;48.716;8.962;2023-02-11T10:28:46;98265.44;;;4.61;69.26
71105;BME280;58760;48.716;8.962;2023-02-11T10:31:20;98270.03;;;4.58;68.01
71105;BME280;58760;48.716;8.962;2023-02-11T10:36:23;98277.81;;;4.88;68.30
71105;BME280;58760;48.716;8.962;2023-02-11T10:38:50;98282.72;;;4.94;68.50
71105;BME280;58760;48.716;8.962;2023-02-11T10:41:19;98275.28;;;4.86;67.86
71105;BME280;58760;48.716;8.962;2023-02-11T10:43:46;98271.13;;;4.82;67.13
71105;BME280;58760;48.716;8.962;2023-02-11T10:46:16;98266.53;;;4.86;67.26
71105;BME280;58760;48.716;8.962;2023-02-11T10:48:44;98267.75;;;4.94;65.93
71105;BME280;58760;48.716;8.962;2023-02-11T10:53:39;98252.59;;;5.26;65.16
71105;BME280;58760;48.716;8.962;2023-02-11T10:56:06;98248.69;;;5.46;64.87
71105;BME280;58760;48.716;8.962;2023-02-11T10:58:45;98235.34;;;5.35;65.67
71105;BME280;58760;48.716;8.962;2023-02-11T11:01:17;98230.72;;;5.65;64.67
71105;BME280;58760;48.716;8.962;2023-02-11T11:03:48;98229.00;;;5.78;63.63
71105;BME280;58760;48.716;8.962;2023-02-11T11:06:14;98222.50;;;5.69;63.78
71105;BME280;58760;48.716;8.962;2023-02-11T11:11:07;98215.53;;;5.95;64.08
71105;BME280;58760;48.716;8.962;2023-02-11T11:13:41;98215.53;;;5.95;64.28
71105;BME280;58760;48.716;8.962;2023-02-11T11:18:48;98222.66;;;6.07;63.64
71105;BME280;58760;48.716;8.962;2023-02-11T11:24:02;98209.06;;;6.39;61.95
71105;BME280;58760;48.716;8.962;2023-02-11T11:26:42;98211.13;;;6.08;61.87
71105;BME280;58760;48.716;8.962;2023-02-11T11:29:21;98209.91;;;6.39;64.42
71105;BME280;58760;48.716;8.962;2023-02-11T11:31:56;98210.09;;;6.49;61.88
71105;BME280;58760;48.716;8.962;2023-02-11T11:34:37;98208.63;;;6.45;61.91
71105;BME280;58760;48.716;8.962;2023-02-11T11:39:39;98213.44;;;6.89;61.22
71105;BME280;58760;48.716;8.962;2023-02-11T11:42:23;98218.31;;;6.82;60.02
71105;BME280;58760;48.716;8.962;2023-02-11T11:45:00;98218.81;;;6.87;61.11
71105;BME280;58760;48.716;8.962;2023-02-11T11:51:00;98207.25;;;7.13;59.51
71105;BME280;58760;48.716;8.962;2023-02-11T11:53:35;98204.97;;;7.56;59.70
71105;BME280;58760;48.716;8.962;2023-02-11T11:56:13;98205.13;;;7.66;59.07
71105;BME280;58760;48.716;8.962;2023-02-11T11:58:41;98192.75;;;8.01;59.71
71105;BME280;58760;48.716;8.962;2023-02-11T12:13:09;98171.28;;;16.93;35.93
71105;BME280;58760;48.716;8.962;2023-02-11T12:18:46;98179.88;;;11.07;46.28
71105;BME280;58760;48.716;8.962;2023-02-11T12:21:19;98167.59;;;14.29;40.96
71105;BME280;58760;48.716;8.962;2023-02-11T12:26:46;98164.31;;;17.61;32.84
71105;BME280;58760;48.716;8.962;2023-02-11T12:29:26;98157.59;;;15.58;37.85
71105;BME280;58760;48.716;8.962;2023-02-11T12:32:24;98169.38;;;15.90;35.94
71105;BME280;58760;48.716;8.962;2023-02-11T12:35:13;98160.44;;;17.87;33.66
71105;BME280;58760;48.716;8.962;2023-02-11T12:38:05;98154.13;;;18.02;32.63
71105;BME280;58760;48.716;8.962;2023-02-11T12:41:00;98148.16;;;19.25;30.61
71105;BME280;58760;48.716;8.962;2023-02-11T12:43:36;98147.84;;;18.47;31.96
71105;BME280;58760;48.716;8.962;2023-02-11T12:46:37;98146.97;;;20.42;29.09
71105;BME280;58760;48.716;8.962;2023-02-11T12:52:22;98150.63;;;18.39;30.80
71105;BME280;58760;48.716;8.962;2023-02-11T12:55:23;98149.09;;;18.22;31.22
71105;BME280;58760;48.716;8.962;2023-02-11T12:57:42;98147.50;;;18.50;31.56
71105;BME280;58760;48.716;8.962;2023-02-11T13:02:46;98141.06;;;19.18;30.81
71105;BME280;58760;48.716;8.962;2023-02-11T13:05:41;98137.44;;;18.44;31.58
71105;BME280;58760;48.716;8.962;2023-02-11T13:11:21;98147.72;;;17.50;31.71
71105;BME280;58760;48.716;8.962;2023-02-11T13:14:30;98147.72;;;18.41;31.51
71105;BME280;58760;48.716;8.962;2023-02-11T13:17:00;98126.03;;;19.80;29.48
71105;BME280;58760;48.716;8.962;2023-02-11T13:19:35;98123.03;;;19.90;30.35
71105;BME280;58760;48.716;8.962;2023-02-11T13:22:37;98107.88;;;20.87;27.31
71105;BME280;58760;48.716;8.962;2023-02-11T13:25:28;98109.09;;;19.44;28.94
71105;BME280;58760;48.716;8.962;2023-02-11T13:28:04;98114.31;;;20.58;28.85
71105;BME280;58760;48.716;8.962;2023-02-11T13:30:37;98107.41;;;21.85;26.53
71105;BME280;58760;48.716;8.962;2023-02-11T13:33:20;98104.47;;;23.18;24.63
71105;BME280;58760;48.716;8.962;2023-02-11T13:38:26;98100.91;;;23.17;25.34
71105;BME280;58760;48.716;8.962;2023-02-11T13:41:15;98099.78;;;24.63;23.41
71105;BME280;58760;48.716;8.962;2023-02-11T13:43:41;98104.75;;;24.91;23.33
71105;BME280;58760;48.716;8.962;2023-02-11T13:46:09;98096.16;;;25.30;22.72
71105;BME280;58760;48.716;8.962;2023-02-11T13:48:37;98094.28;;;25.13;23.00
71105;BME280;58760;48.716;8.962;2023-02-11T13:51:06;98105.56;;;23.92;24.42
71105;BME280;58760;48.716;8.962;2023-02-11T13:53:48;98111.31;;;23.71;24.31
71105;BME280;58760;48.716;8.962;2023-02-11T13:58:56;98104.63;;;24.05;24.81
71105;BME280;58760;48.716;8.962;2023-02-11T14:02:00;98113.31;;;24.70;23.83
71105;BME280;58760;48.716;8.962;2023-02-11T14:10:54;98093.56;;;24.38;24.24
71105;BME280;58760;48.716;8.962;2023-02-11T14:21:11;98095.19;;;25.07;23.21
71105;BME280;58760;48.716;8.962;2023-02-11T14:23:38;98090.25;;;23.73;24.30
71105;BME280;58760;48.716;8.962;2023-02-11T14:29:02;98092.69;;;24.13;24.71
71105;BME280;58760;48.716;8.962;2023-02-11T14:31:48;98099.38;;;23.34;25.94
71105;BME280;58760;48.716;8.962;2023-02-11T14:34:39;98096.44;;;23.42;25.69
71105;BME280;58760;48.716;8.962;2023-02-11T14:42:16;98108.53;;;22.82;26.44
71105;BME280;58760;48.716;8.962;2023-02-11T14:44:43;98102.28;;;22.82;25.97
71105;BME280;58760;48.716;8.962;2023-02-11T14:47:17;98117.06;;;22.01;26.50
71105;BME280;58760;48.716;8.962;2023-02-11T14:49:43;98113.63;;;19.79;29.49
71105;BME280;58760;48.716;8.962;2023-02-11T14:52:24;98115.31;;;19.15;31.12
71105;BME280;58760;48.716;8.962;2023-02-11T14:55:21;98118.53;;;19.97;29.60
71105;BME280;58760;48.716;8.962;2023-02-11T14:57:41;98123.97;;;20.74;28.69
71105;BME280;58760;48.716;8.962;2023-02-11T15:00:21;98128.13;;;16.63;34.79
71105;BME280;58760;48.716;8.962;2023-02-11T15:02:47;98136.66;;;15.04;38.24
71105;BME280;58760;48.716;8.962;2023-02-11T15:05:23;98140.06;;;13.68;40.49
71105;BME280;58760;48.716;8.962;2023-02-11T15:07:55;98144.09;;;12.26;44.08
71105;BME280;58760;48.716;8.962;2023-02-11T15:10:32;98153.94;;;11.48;46.19
71105;BME280;58760;48.716;8.962;2023-02-11T15:13:00;98162.97;;;10.68;48.39
71105;BME280;58760;48.716;8.962;2023-02-11T15:15:27;98152.59;;;10.65;47.65
71105;BME280;58760;48.716;8.962;2023-02-11T15:17:54;98154.44;;;10.34;48.12